DAL1372 KMCO-KATL
Flight info
| Callsign | DAL1372 |
|---|---|
| Flight time | 1h 0m |
| Altitude | 40000 |
| Route | JEEMY4 PAINN SHRKS LAIRI LARZZ JJEDI4 |
| Aircraft | B752/M-SDE3FGHIM3RWXY/LB1 |
Departure
| Time | 2026-05-04 22:02 |
|---|---|
| Airport | Orlando International Airport (KMCO) |
Arrival
| Time | 2026-05-04 23:02 |
|---|---|
| Airport | Hartsfield Jackson Atlanta International Airport (KATL) |
| Time | Latitude | Longitude | Altitude | Speed | Heading |
|---|---|---|---|---|---|
| 2026-05-04 21:38 | 28.42840 | -81.30108 | 89 ft | 0 kts | 141° |
| 2026-05-04 21:50 | 28.42849 | -81.30115 | 89 ft | 2 kts | 141° |
| 2026-05-04 21:50 | 28.42861 | -81.30126 | 89 ft | 2 kts | 142° |
| 2026-05-04 21:50 | 28.42872 | -81.30137 | 89 ft | 2 kts | 141° |
| 2026-05-04 21:51 | 28.42884 | -81.30148 | 89 ft | 2 kts | 142° |
| 2026-05-04 21:51 | 28.42896 | -81.30158 | 89 ft | 2 kts | 141° |
| 2026-05-04 21:51 | 28.42908 | -81.30169 | 89 ft | 1 kts | 141° |
| 2026-05-04 21:51 | 28.42909 | -81.30170 | 89 ft | 0 kts | 141° |
| 2026-05-04 21:52 | 28.42913 | -81.30173 | 89 ft | 2 kts | 139° |
| 2026-05-04 21:52 | 28.42919 | -81.30187 | 89 ft | 0 kts | 101° |
| 2026-05-04 21:53 | 28.42927 | -81.30172 | 89 ft | 4 kts | 51° |
| 2026-05-04 21:53 | 28.42944 | -81.30144 | 89 ft | 2 kts | 56° |
| 2026-05-04 21:53 | 28.42948 | -81.30137 | 90 ft | 0 kts | 57° |
| 2026-05-04 21:55 | 28.42949 | -81.30136 | 90 ft | 1 kts | 57° |
| 2026-05-04 21:56 | 28.42961 | -81.30112 | 90 ft | 4 kts | 63° |
| 2026-05-04 21:56 | 28.42976 | -81.30070 | 90 ft | 7 kts | 76° |
| 2026-05-04 21:56 | 28.42975 | -81.29997 | 92 ft | 10 kts | 112° |
| 2026-05-04 21:56 | 28.42928 | -81.29906 | 92 ft | 14 kts | 126° |
| 2026-05-04 21:57 | 28.42899 | -81.29812 | 93 ft | 11 kts | 133° |
| 2026-05-04 21:57 | 28.42817 | -81.29801 | 92 ft | 13 kts | 182° |
| 2026-05-04 21:57 | 28.42718 | -81.29798 | 90 ft | 15 kts | 178° |
| 2026-05-04 21:57 | 28.42604 | -81.29795 | 89 ft | 16 kts | 179° |
| 2026-05-04 21:58 | 28.42487 | -81.29791 | 89 ft | 16 kts | 176° |
| 2026-05-04 21:58 | 28.42373 | -81.29791 | 91 ft | 15 kts | 182° |
| 2026-05-04 21:58 | 28.42267 | -81.29792 | 92 ft | 15 kts | 180° |
| 2026-05-04 21:58 | 28.42162 | -81.29793 | 92 ft | 14 kts | 180° |
| 2026-05-04 21:59 | 28.42052 | -81.29791 | 92 ft | 19 kts | 179° |
| 2026-05-04 21:59 | 28.41898 | -81.29787 | 93 ft | 23 kts | 181° |
| 2026-05-04 21:59 | 28.41724 | -81.29787 | 91 ft | 25 kts | 180° |
| 2026-05-04 21:59 | 28.41541 | -81.29784 | 89 ft | 26 kts | 180° |
| 2026-05-04 22:00 | 28.41351 | -81.29782 | 88 ft | 27 kts | 179° |
| 2026-05-04 22:00 | 28.41155 | -81.29781 | 86 ft | 28 kts | 179° |
| 2026-05-04 22:00 | 28.40960 | -81.29778 | 85 ft | 25 kts | 181° |
| 2026-05-04 22:00 | 28.40830 | -81.29751 | 83 ft | 15 kts | 123° |
| 2026-05-04 22:01 | 28.40823 | -81.29628 | 83 ft | 15 kts | 86° |
| 2026-05-04 22:01 | 28.40880 | -81.29560 | 84 ft | 13 kts | 3° |
| 2026-05-04 22:01 | 28.41116 | -81.29560 | 87 ft | 65 kts | 359° |
| 2026-05-04 22:01 | 28.41856 | -81.29572 | 91 ft | 145 kts | 1° |
| 2026-05-04 22:02 | 28.43041 | -81.29594 | 476 ft | 183 kts | 4° |
| 2026-05-04 22:02 | 28.44337 | -81.29608 | 1381 ft | 194 kts | 6° |
| 2026-05-04 22:02 | 28.45624 | -81.29143 | 2116 ft | 202 kts | 34° |
| 2026-05-04 22:02 | 28.46841 | -81.28329 | 3000 ft | 210 kts | 33° |
| 2026-05-04 22:03 | 28.48187 | -81.27459 | 3623 ft | 236 kts | 32° |
| 2026-05-04 22:03 | 28.49648 | -81.26508 | 4399 ft | 255 kts | 31° |
| 2026-05-04 22:03 | 28.51308 | -81.25563 | 5176 ft | 275 kts | 16° |
| 2026-05-04 22:03 | 28.53197 | -81.25284 | 6241 ft | 279 kts | 2° |
| 2026-05-04 22:04 | 28.55149 | -81.25158 | 6962 ft | 293 kts | 359° |
| 2026-05-04 22:04 | 28.57203 | -81.25229 | 7761 ft | 297 kts | 353° |
| 2026-05-04 22:04 | 28.59120 | -81.25781 | 9203 ft | 283 kts | 336° |
| 2026-05-04 22:04 | 28.60928 | -81.26624 | 10176 ft | 288 kts | 335° |
| 2026-05-04 22:05 | 28.62783 | -81.27498 | 11244 ft | 290 kts | 336° |
| 2026-05-04 22:05 | 28.64712 | -81.28336 | 11854 ft | 308 kts | 337° |
| 2026-05-04 22:05 | 28.66766 | -81.29216 | 12389 ft | 327 kts | 337° |
| 2026-05-04 22:05 | 28.68953 | -81.30163 | 13035 ft | 341 kts | 337° |
| 2026-05-04 22:06 | 28.71171 | -81.31125 | 14023 ft | 343 kts | 336° |
| 2026-05-04 22:06 | 28.73413 | -81.32101 | 14910 ft | 348 kts | 336° |
| 2026-05-04 22:06 | 28.75671 | -81.33086 | 15767 ft | 354 kts | 336° |
| 2026-05-04 22:06 | 28.77964 | -81.34087 | 16664 ft | 357 kts | 336° |
| 2026-05-04 22:07 | 28.80287 | -81.35102 | 17516 ft | 361 kts | 335° |
| 2026-05-04 22:07 | 28.82663 | -81.36142 | 18348 ft | 365 kts | 335° |
| 2026-05-04 22:07 | 28.85033 | -81.37179 | 19158 ft | 370 kts | 335° |
| 2026-05-04 22:07 | 28.87433 | -81.38229 | 20003 ft | 372 kts | 334° |
| 2026-05-04 22:08 | 28.89854 | -81.39291 | 20726 ft | 377 kts | 334° |
| 2026-05-04 22:08 | 28.92305 | -81.40365 | 21557 ft | 379 kts | 334° |
| 2026-05-04 22:08 | 28.94774 | -81.41448 | 22361 ft | 381 kts | 334° |
| 2026-05-04 22:08 | 28.97278 | -81.42548 | 23014 ft | 387 kts | 334° |
| 2026-05-04 22:09 | 28.99766 | -81.43640 | 23846 ft | 388 kts | 333° |
| 2026-05-04 22:09 | 29.02313 | -81.44759 | 24476 ft | 394 kts | 333° |
| 2026-05-04 22:09 | 29.04859 | -81.45878 | 25208 ft | 396 kts | 333° |
| 2026-05-04 22:09 | 29.07460 | -81.47023 | 25775 ft | 402 kts | 333° |
| 2026-05-04 22:10 | 29.10076 | -81.48172 | 26556 ft | 402 kts | 333° |
| 2026-05-04 22:10 | 29.12683 | -81.49321 | 27084 ft | 407 kts | 333° |
| 2026-05-04 22:10 | 29.15348 | -81.50494 | 27797 ft | 408 kts | 333° |
| 2026-05-04 22:10 | 29.18002 | -81.51665 | 28264 ft | 414 kts | 333° |
| 2026-05-04 22:11 | 29.20670 | -81.52840 | 28865 ft | 416 kts | 333° |
| 2026-05-04 22:11 | 29.23402 | -81.54046 | 29457 ft | 418 kts | 333° |
| 2026-05-04 22:11 | 29.26120 | -81.55245 | 29998 ft | 421 kts | 332° |
| 2026-05-04 22:11 | 29.28844 | -81.56449 | 30527 ft | 422 kts | 332° |
| 2026-05-04 22:12 | 29.31591 | -81.57664 | 30914 ft | 428 kts | 332° |
| 2026-05-04 22:12 | 29.34367 | -81.58890 | 31435 ft | 428 kts | 332° |
| 2026-05-04 22:12 | 29.37136 | -81.60114 | 32118 ft | 425 kts | 332° |
| 2026-05-04 22:12 | 29.39876 | -81.61327 | 32609 ft | 425 kts | 332° |
| 2026-05-04 22:13 | 29.42644 | -81.62553 | 33238 ft | 422 kts | 332° |
| 2026-05-04 22:13 | 29.45379 | -81.63764 | 33815 ft | 420 kts | 332° |
| 2026-05-04 22:13 | 29.48071 | -81.64960 | 34301 ft | 420 kts | 332° |
| 2026-05-04 22:13 | 29.50784 | -81.66163 | 34951 ft | 416 kts | 332° |
| 2026-05-04 22:14 | 29.53491 | -81.67365 | 35472 ft | 415 kts | 331° |
| 2026-05-04 22:14 | 29.56200 | -81.68568 | 36007 ft | 414 kts | 331° |
| 2026-05-04 22:14 | 29.58881 | -81.69762 | 36405 ft | 414 kts | 331° |
| 2026-05-04 22:14 | 29.61552 | -81.70950 | 36795 ft | 414 kts | 331° |
| 2026-05-04 22:15 | 29.64254 | -81.72153 | 37206 ft | 414 kts | 331° |
| 2026-05-04 22:15 | 29.66939 | -81.73348 | 37613 ft | 413 kts | 331° |
| 2026-05-04 22:15 | 29.69618 | -81.74542 | 38008 ft | 412 kts | 331° |
| 2026-05-04 22:15 | 29.72278 | -81.75729 | 38264 ft | 414 kts | 331° |
| 2026-05-04 22:16 | 29.74986 | -81.76938 | 38546 ft | 415 kts | 331° |
| 2026-05-04 22:16 | 29.77657 | -81.78128 | 38993 ft | 413 kts | 331° |
| 2026-05-04 22:16 | 29.80339 | -81.79327 | 39276 ft | 413 kts | 330° |
| 2026-05-04 22:16 | 29.83024 | -81.80528 | 39471 ft | 415 kts | 330° |
| 2026-05-04 22:17 | 29.85703 | -81.81724 | 39904 ft | 412 kts | 330° |
| 2026-05-04 22:17 | 29.88379 | -81.82918 | 40018 ft | 401 kts | 330° |
| 2026-05-04 22:17 | 29.90904 | -81.84042 | 40016 ft | 385 kts | 330° |
| 2026-05-04 22:17 | 29.93349 | -81.85133 | 40002 ft | 367 kts | 329° |
| 2026-05-04 22:18 | 29.95752 | -81.86217 | 40042 ft | 369 kts | 329° |
| 2026-05-04 22:18 | 30.00592 | -81.88397 | 40031 ft | 378 kts | 329° |
| 2026-05-04 22:19 | 30.05541 | -81.90623 | 40036 ft | 386 kts | 329° |
| 2026-05-04 22:19 | 30.10629 | -81.92910 | 40045 ft | 395 kts | 330° |
| 2026-05-04 22:20 | 30.15791 | -81.95233 | 40041 ft | 403 kts | 330° |
| 2026-05-04 22:20 | 30.21075 | -81.97613 | 40039 ft | 411 kts | 330° |
| 2026-05-04 22:21 | 30.26465 | -82.00043 | 40036 ft | 418 kts | 330° |
| 2026-05-04 22:21 | 30.31942 | -82.02515 | 40039 ft | 425 kts | 330° |
| 2026-05-04 22:22 | 30.37486 | -82.05020 | 40017 ft | 430 kts | 330° |
| 2026-05-04 22:22 | 30.43079 | -82.07549 | 40022 ft | 431 kts | 330° |
| 2026-05-04 22:23 | 30.48657 | -82.10076 | 40026 ft | 431 kts | 330° |
| 2026-05-04 22:23 | 30.54231 | -82.12605 | 40024 ft | 430 kts | 330° |
| 2026-05-04 22:24 | 30.59784 | -82.15126 | 40030 ft | 428 kts | 330° |
| 2026-05-04 22:24 | 30.65337 | -82.17652 | 40029 ft | 428 kts | 330° |
| 2026-05-04 22:25 | 30.70887 | -82.20180 | 40024 ft | 427 kts | 330° |
| 2026-05-04 22:25 | 30.76419 | -82.22704 | 40024 ft | 427 kts | 330° |
| 2026-05-04 22:26 | 30.81914 | -82.25211 | 40021 ft | 427 kts | 330° |
| 2026-05-04 22:26 | 30.87442 | -82.27739 | 40017 ft | 426 kts | 330° |
| 2026-05-04 22:27 | 30.92960 | -82.30264 | 40018 ft | 424 kts | 330° |
| 2026-05-04 22:27 | 30.98424 | -82.32768 | 40020 ft | 425 kts | 330° |
| 2026-05-04 22:28 | 31.03915 | -82.35287 | 40016 ft | 423 kts | 330° |
| 2026-05-04 22:28 | 31.09409 | -82.37811 | 40023 ft | 423 kts | 330° |
| 2026-05-04 22:29 | 31.14908 | -82.40342 | 40029 ft | 424 kts | 330° |
| 2026-05-04 22:29 | 31.20384 | -82.42863 | 40024 ft | 422 kts | 330° |
| 2026-05-04 22:30 | 31.25816 | -82.45367 | 40030 ft | 421 kts | 330° |
| 2026-05-04 22:30 | 31.31281 | -82.47892 | 40025 ft | 423 kts | 330° |
| 2026-05-04 22:31 | 31.36733 | -82.50410 | 40023 ft | 421 kts | 330° |
| 2026-05-04 22:31 | 31.42192 | -82.52938 | 40022 ft | 420 kts | 330° |
| 2026-05-04 22:32 | 31.47635 | -82.55461 | 40027 ft | 422 kts | 330° |
| 2026-05-04 22:32 | 31.53052 | -82.57974 | 40026 ft | 422 kts | 330° |
| 2026-05-04 22:33 | 31.58534 | -82.60522 | 40027 ft | 420 kts | 330° |
| 2026-05-04 22:33 | 31.63943 | -82.63037 | 40025 ft | 420 kts | 330° |
| 2026-05-04 22:34 | 31.69380 | -82.65569 | 40034 ft | 420 kts | 330° |
| 2026-05-04 22:34 | 31.74810 | -82.68102 | 40039 ft | 421 kts | 330° |
| 2026-05-04 22:35 | 31.80216 | -82.70625 | 40043 ft | 417 kts | 330° |
| 2026-05-04 22:35 | 31.85628 | -82.73155 | 40026 ft | 417 kts | 330° |
| 2026-05-04 22:36 | 31.91023 | -82.75682 | 40020 ft | 421 kts | 330° |
| 2026-05-04 22:36 | 31.96450 | -82.78225 | 40043 ft | 420 kts | 330° |
| 2026-05-04 22:36 | 31.99217 | -82.79527 | 39466 ft | 429 kts | 330° |
| 2026-05-04 22:37 | 32.01977 | -82.80823 | 38811 ft | 428 kts | 330° |
| 2026-05-04 22:37 | 32.04733 | -82.82114 | 38199 ft | 423 kts | 330° |
| 2026-05-04 22:37 | 32.07451 | -82.83391 | 37421 ft | 420 kts | 331° |
| 2026-05-04 22:37 | 32.10160 | -82.84666 | 36735 ft | 421 kts | 331° |
| 2026-05-04 22:38 | 32.12890 | -82.85953 | 36050 ft | 425 kts | 331° |
| 2026-05-04 22:38 | 32.15644 | -82.87252 | 35493 ft | 428 kts | 331° |
| 2026-05-04 22:38 | 32.18423 | -82.88560 | 34968 ft | 431 kts | 331° |
| 2026-05-04 22:38 | 32.21205 | -82.89874 | 34437 ft | 435 kts | 332° |
| 2026-05-04 22:39 | 32.24024 | -82.91206 | 33795 ft | 439 kts | 332° |
| 2026-05-04 22:39 | 32.26835 | -82.92532 | 33021 ft | 440 kts | 332° |
| 2026-05-04 22:39 | 32.29709 | -82.93890 | 32272 ft | 442 kts | 332° |
| 2026-05-04 22:39 | 32.32576 | -82.95247 | 31519 ft | 446 kts | 333° |
| 2026-05-04 22:40 | 32.35398 | -82.96614 | 31008 ft | 439 kts | 330° |
| 2026-05-04 22:40 | 32.38008 | -82.98354 | 31009 ft | 413 kts | 320° |
| 2026-05-04 22:40 | 32.40196 | -83.00364 | 30917 ft | 394 kts | 316° |
| 2026-05-04 22:40 | 32.42297 | -83.02416 | 30286 ft | 392 kts | 316° |
| 2026-05-04 22:41 | 32.44386 | -83.04497 | 29618 ft | 389 kts | 316° |
| 2026-05-04 22:41 | 32.46428 | -83.06554 | 29075 ft | 384 kts | 316° |
| 2026-05-04 22:41 | 32.48457 | -83.08618 | 28337 ft | 384 kts | 316° |
| 2026-05-04 22:41 | 32.50448 | -83.10655 | 27623 ft | 383 kts | 315° |
| 2026-05-04 22:42 | 32.52449 | -83.12711 | 26998 ft | 380 kts | 315° |
| 2026-05-04 22:42 | 32.54435 | -83.14754 | 26390 ft | 376 kts | 315° |
| 2026-05-04 22:42 | 32.56392 | -83.16773 | 25835 ft | 372 kts | 315° |
| 2026-05-04 22:42 | 32.58326 | -83.18769 | 25341 ft | 361 kts | 315° |
| 2026-05-04 22:43 | 32.60188 | -83.20697 | 24873 ft | 357 kts | 315° |
| 2026-05-04 22:43 | 32.62065 | -83.22646 | 24357 ft | 365 kts | 315° |
| 2026-05-04 22:43 | 32.63992 | -83.24648 | 23831 ft | 368 kts | 315° |
| 2026-05-04 22:43 | 32.65903 | -83.26631 | 23320 ft | 372 kts | 315° |
| 2026-05-04 22:44 | 32.67927 | -83.28741 | 22792 ft | 404 kts | 316° |
| 2026-05-04 22:44 | 32.70092 | -83.30991 | 22060 ft | 416 kts | 316° |
| 2026-05-04 22:44 | 32.72225 | -83.33205 | 21290 ft | 409 kts | 316° |
| 2026-05-04 22:44 | 32.74355 | -83.35419 | 20514 ft | 401 kts | 316° |
| 2026-05-04 22:45 | 32.76438 | -83.37589 | 19813 ft | 398 kts | 316° |
| 2026-05-04 22:45 | 32.80598 | -83.41928 | 18438 ft | 405 kts | 316° |
| 2026-05-04 22:45 | 32.82708 | -83.44131 | 17694 ft | 408 kts | 316° |
| 2026-05-04 22:46 | 32.84842 | -83.46358 | 16930 ft | 402 kts | 317° |
| 2026-05-04 22:46 | 32.86918 | -83.48528 | 16183 ft | 396 kts | 317° |
| 2026-05-04 22:46 | 32.88947 | -83.50650 | 15779 ft | 385 kts | 317° |
| 2026-05-04 22:46 | 32.90965 | -83.52763 | 15789 ft | 391 kts | 317° |
| 2026-05-04 22:47 | 32.93033 | -83.54929 | 15787 ft | 398 kts | 317° |
| 2026-05-04 22:47 | 32.95094 | -83.57086 | 15780 ft | 393 kts | 317° |
| 2026-05-04 22:47 | 32.97184 | -83.59275 | 15179 ft | 403 kts | 317° |
| 2026-05-04 22:47 | 32.99244 | -83.61433 | 14438 ft | 391 kts | 317° |
| 2026-05-04 22:48 | 33.01262 | -83.63547 | 13705 ft | 381 kts | 317° |
| 2026-05-04 22:48 | 33.03234 | -83.65617 | 13093 ft | 378 kts | 317° |
| 2026-05-04 22:48 | 33.05184 | -83.67662 | 12860 ft | 364 kts | 317° |
| 2026-05-04 22:48 | 33.07034 | -83.69604 | 12723 ft | 346 kts | 317° |
| 2026-05-04 22:49 | 33.08782 | -83.71441 | 12530 ft | 332 kts | 317° |
| 2026-05-04 22:49 | 33.10506 | -83.73255 | 11890 ft | 333 kts | 317° |
| 2026-05-04 22:49 | 33.12227 | -83.75065 | 11683 ft | 314 kts | 317° |
| 2026-05-04 22:49 | 33.13866 | -83.76791 | 11705 ft | 325 kts | 317° |
| 2026-05-04 22:50 | 33.15599 | -83.78622 | 11713 ft | 330 kts | 317° |
| 2026-05-04 22:50 | 33.17248 | -83.80362 | 11684 ft | 312 kts | 317° |
| 2026-05-04 22:50 | 33.18835 | -83.82040 | 11617 ft | 296 kts | 316° |
| 2026-05-04 22:50 | 33.20307 | -83.83739 | 11158 ft | 297 kts | 313° |
| 2026-05-04 22:51 | 33.21761 | -83.85484 | 10742 ft | 295 kts | 313° |
| 2026-05-04 22:51 | 33.23259 | -83.87167 | 10355 ft | 293 kts | 321° |
| 2026-05-04 22:51 | 33.24914 | -83.88490 | 10067 ft | 286 kts | 324° |
| 2026-05-04 22:51 | 33.26584 | -83.89852 | 9753 ft | 293 kts | 323° |
| 2026-05-04 22:52 | 33.28262 | -83.91259 | 9444 ft | 296 kts | 323° |
| 2026-05-04 22:52 | 33.29922 | -83.92667 | 9124 ft | 293 kts | 323° |
| 2026-05-04 22:52 | 33.31576 | -83.94079 | 8803 ft | 290 kts | 322° |
| 2026-05-04 22:52 | 33.33207 | -83.95478 | 8475 ft | 288 kts | 322° |
| 2026-05-04 22:53 | 33.34837 | -83.96880 | 8151 ft | 286 kts | 322° |
| 2026-05-04 22:53 | 33.36425 | -83.98249 | 7980 ft | 280 kts | 322° |
| 2026-05-04 22:53 | 33.38009 | -83.99615 | 7989 ft | 283 kts | 323° |
| 2026-05-04 22:53 | 33.39640 | -84.01022 | 7981 ft | 287 kts | 322° |
| 2026-05-04 22:54 | 33.41244 | -84.02407 | 7978 ft | 286 kts | 322° |
| 2026-05-04 22:54 | 33.42854 | -84.03798 | 7979 ft | 286 kts | 322° |
| 2026-05-04 22:54 | 33.44494 | -84.05216 | 7613 ft | 293 kts | 322° |
| 2026-05-04 22:54 | 33.46125 | -84.06626 | 7147 ft | 285 kts | 322° |
| 2026-05-04 22:55 | 33.47690 | -84.07980 | 6877 ft | 270 kts | 322° |
| 2026-05-04 22:55 | 33.49198 | -84.09287 | 6336 ft | 268 kts | 322° |
| 2026-05-04 22:55 | 33.50682 | -84.10572 | 5814 ft | 266 kts | 322° |
| 2026-05-04 22:55 | 33.52196 | -84.11884 | 5435 ft | 265 kts | 322° |
| 2026-05-04 22:56 | 33.53686 | -84.13175 | 5082 ft | 264 kts | 322° |
| 2026-05-04 22:56 | 33.55162 | -84.14456 | 4719 ft | 264 kts | 322° |
| 2026-05-04 22:56 | 33.56641 | -84.15739 | 4357 ft | 264 kts | 322° |
| 2026-05-04 22:56 | 33.58114 | -84.17017 | 4254 ft | 253 kts | 322° |
| 2026-05-04 22:57 | 33.59530 | -84.18247 | 4013 ft | 249 kts | 322° |
| 2026-05-04 22:57 | 33.60673 | -84.19674 | 3982 ft | 230 kts | 298° |
| 2026-05-04 22:57 | 33.61398 | -84.21319 | 3980 ft | 221 kts | 294° |
| 2026-05-04 22:57 | 33.62102 | -84.22993 | 3905 ft | 232 kts | 295° |
| 2026-05-04 22:58 | 33.62824 | -84.24731 | 3659 ft | 226 kts | 292° |
| 2026-05-04 22:58 | 33.63124 | -84.26432 | 3451 ft | 197 kts | 268° |
| 2026-05-04 22:58 | 33.63141 | -84.28011 | 3187 ft | 179 kts | 268° |
| 2026-05-04 22:58 | 33.63164 | -84.29407 | 2996 ft | 160 kts | 267° |
| 2026-05-04 22:59 | 33.63173 | -84.30690 | 2771 ft | 148 kts | 266° |
| 2026-05-04 22:59 | 33.63177 | -84.31937 | 2592 ft | 150 kts | 266° |
| 2026-05-04 22:59 | 33.63180 | -84.33161 | 2401 ft | 143 kts | 266° |
| 2026-05-04 22:59 | 33.63183 | -84.34279 | 2210 ft | 128 kts | 266° |
| 2026-05-04 23:00 | 33.63184 | -84.35313 | 2038 ft | 121 kts | 266° |
| 2026-05-04 23:00 | 33.63183 | -84.36325 | 1901 ft | 124 kts | 266° |
| 2026-05-04 23:00 | 33.63182 | -84.37376 | 1743 ft | 124 kts | 266° |
| 2026-05-04 23:00 | 33.63182 | -84.38394 | 1576 ft | 123 kts | 266° |
| 2026-05-04 23:01 | 33.63182 | -84.39429 | 1435 ft | 123 kts | 268° |
| 2026-05-04 23:01 | 33.63183 | -84.40462 | 1317 ft | 126 kts | 267° |
| 2026-05-04 23:01 | 33.63184 | -84.41494 | 1130 ft | 122 kts | 266° |
| 2026-05-04 23:01 | 33.63180 | -84.42509 | 1020 ft | 116 kts | 271° |
| 2026-05-04 23:02 | 33.63181 | -84.43240 | 1022 ft | 65 kts | 271° |
| 2026-05-04 23:02 | 33.63233 | -84.43649 | 1022 ft | 41 kts | 295° |
| 2026-05-04 23:02 | 33.63346 | -84.43893 | 1021 ft | 21 kts | 290° |
| 2026-05-04 23:02 | 33.63360 | -84.44059 | 1022 ft | 17 kts | 269° |
| 2026-05-04 23:03 | 33.63381 | -84.44173 | 1022 ft | 12 kts | 316° |
| 2026-05-04 23:03 | 33.63464 | -84.44194 | 1022 ft | 12 kts | 2° |
| 2026-05-04 23:03 | 33.63557 | -84.44193 | 1021 ft | 14 kts | 360° |
| 2026-05-04 23:03 | 33.63633 | -84.44184 | 1024 ft | 9 kts | 25° |
| 2026-05-04 23:04 | 33.63680 | -84.44128 | 1024 ft | 9 kts | 39° |
| 2026-05-04 23:04 | 33.63749 | -84.44115 | 1024 ft | 8 kts | 1° |
| 2026-05-04 23:04 | 33.63835 | -84.44074 | 1024 ft | 18 kts | 21° |
| 2026-05-04 23:04 | 33.63960 | -84.44050 | 1024 ft | 18 kts | 359° |
| 2026-05-04 23:05 | 33.64047 | -84.44036 | 1024 ft | 7 kts | 53° |
| 2026-05-04 23:05 | 33.64050 | -84.43988 | 1024 ft | 4 kts | 89° |
| 2026-05-04 23:05 | 33.64050 | -84.43973 | 1024 ft | 0 kts | 90° |